NCAR-RAP Real-Time Weather Data

Output produced by METARs form (25 July 2017  06:38 UTC)
found at http://weather.rap.ucar.edu/surface/
 
Conditions at: KSDF observed 25 July 2017  05:56 UTC
Temperature: 24.4°C (76°F)
Dewpoint: 18.3°C (65°F) [RH = 69%]
Pressure (altimeter): 30.06 inches Hg (1018.0 mb)
[Sea-level pressure: 1017.4 mb]
Winds: from the NE (50 degrees) at 7 MPH (6 knots; 3.1 m/s)
Visibility: 10 or more miles (16+ km)
Ceiling: at least 12,000 feet AGL
Clouds: few clouds at 5500 feet AGL
scattered clouds at 7000 feet AGL
Present Weather: no significant weather observed at this time
KSDF 250556Z 05006KT 10SM FEW055 SCT070 24/18 A3006 RMK AO2 SLP174 T02440183 10300 20244 53015